sensor_id;sensor_type;location;lat;lon;timestamp;temperature;humidity
19188;DHT22;9726;52.198;8.792;2023-11-21T10:35:47;7.00;1.00
19188;DHT22;9726;52.198;8.792;2023-11-21T10:38:18;6.60;1.00
19188;DHT22;9726;52.198;8.792;2023-11-21T10:40:48;7.00;1.00
19188;DHT22;9726;52.198;8.792;2023-11-21T10:45:44;7.00;99.90
19188;DHT22;9726;52.198;8.792;2023-11-21T10:48:15;7.00;1.00
19188;DHT22;9726;52.198;8.792;2023-11-21T10:50:45;7.40;99.90
19188;DHT22;9726;52.198;8.792;2023-11-21T10:58:09;7.20;1.00
19188;DHT22;9726;52.198;8.792;2023-11-21T11:00:38;7.20;1.00
19188;DHT22;9726;52.198;8.792;2023-11-21T11:03:08;7.10;1.00
19188;DHT22;9726;52.198;8.792;2023-11-21T11:05:44;7.10;1.00
19188;DHT22;9726;52.198;8.792;2023-11-21T11:08:21;6.90;99.90
19188;DHT22;9726;52.198;8.792;2023-11-21T11:10:54;7.20;99.90
19188;DHT22;9726;52.198;8.792;2023-11-21T11:15:50;6.70;99.90
19188;DHT22;9726;52.198;8.792;2023-11-21T11:18:18;7.00;1.00
19188;DHT22;9726;52.198;8.792;2023-11-21T11:20:49;6.90;99.90
19188;DHT22;9726;52.198;8.792;2023-11-21T11:28:47;6.80;1.00
19188;DHT22;9726;52.198;8.792;2023-11-21T11:31:30;6.70;1.00
19188;DHT22;9726;52.198;8.792;2023-11-21T11:34:17;6.90;1.00
19188;DHT22;9726;52.198;8.792;2023-11-21T11:36:58;6.90;1.00
19188;DHT22;9726;52.198;8.792;2023-11-21T11:39:36;6.90;1.00
19188;DHT22;9726;52.198;8.792;2023-11-21T11:42:06;7.10;99.90
19188;DHT22;9726;52.198;8.792;2023-11-21T11:47:23;7.10;1.00
19188;DHT22;9726;52.198;8.792;2023-11-21T11:50:07;7.00;1.00
19188;DHT22;9726;52.198;8.792;2023-11-21T11:52:42;7.10;1.00
19188;DHT22;9726;52.198;8.792;2023-11-21T11:55:15;6.90;1.00
19188;DHT22;9726;52.198;8.792;2023-11-21T11:57:47;6.90;1.00
19188;DHT22;9726;52.198;8.792;2023-11-21T12:02:56;7.20;1.00
19188;DHT22;9726;52.198;8.792;2023-11-21T12:08:02;7.10;1.00
19188;DHT22;9726;52.198;8.792;2023-11-21T12:10:31;7.10;1.00
19188;DHT22;9726;52.198;8.792;2023-11-21T12:13:05;7.00;99.90
19188;DHT22;9726;52.198;8.792;2023-11-21T12:18:03;7.10;99.90
19188;DHT22;9726;52.198;8.792;2023-11-21T12:20:31;7.20;99.90
19188;DHT22;9726;52.198;8.792;2023-11-21T12:22:59;7.10;99.90
19188;DHT22;9726;52.198;8.792;2023-11-21T12:25:28;7.30;1.00
19188;DHT22;9726;52.198;8.792;2023-11-21T12:27:57;7.30;1.00
19188;DHT22;9726;52.198;8.792;2023-11-21T12:30:30;7.30;99.90
19188;DHT22;9726;52.198;8.792;2023-11-21T12:35:30;7.50;99.90
19188;DHT22;9726;52.198;8.792;2023-11-21T12:42:56;7.30;99.90
19188;DHT22;9726;52.198;8.792;2023-11-21T12:45:28;7.40;99.90
19188;DHT22;9726;52.198;8.792;2023-11-21T12:47:57;7.90;99.90
19188;DHT22;9726;52.198;8.792;2023-11-21T12:50:29;7.60;99.90
19188;DHT22;9726;52.198;8.792;2023-11-21T12:53:00;7.90;99.90
19188;DHT22;9726;52.198;8.792;2023-11-21T12:55:31;7.60;99.90
19188;DHT22;9726;52.198;8.792;2023-11-21T12:58:01;7.90;1.00
19188;DHT22;9726;52.198;8.792;2023-11-21T13:00:47;7.80;99.90
19188;DHT22;9726;52.198;8.792;2023-11-21T13:03:16;7.50;99.90
19188;DHT22;9726;52.198;8.792;2023-11-21T13:05:53;7.50;99.90
19188;DHT22;9726;52.198;8.792;2023-11-21T13:08:22;7.80;99.90
19188;DHT22;9726;52.198;8.792;2023-11-21T13:10:55;7.10;99.90
19188;DHT22;9726;52.198;8.792;2023-11-21T13:13:24;7.40;99.90
19188;DHT22;9726;52.198;8.792;2023-11-21T13:18:28;7.40;81.50
19188;DHT22;9726;52.198;8.792;2023-11-21T13:20:57;7.40;95.10
19188;DHT22;9726;52.198;8.792;2023-11-21T13:23:25;6.90;99.90
19188;DHT22;9726;52.198;8.792;2023-11-21T13:25:54;7.60;1.00
19188;DHT22;9726;52.198;8.792;2023-11-21T13:28:32;7.40;99.90
